Extreme weather reports worldwide

Low visibility

Station
 
Location
 
Name
 
Wind
Knots
Gust
Knots
Vis
SM
Temp/Dew
C
Baro
inHg
METAR
 
BHO VABP Bhopal, IN Raja Bhoj International Airport 4 0.03 6/6 30.03 VABP 182200Z 34004KT 0050 FG NSC 06/06 Q1017 NOSIG
RMI LIPR Rimini, IT Federico Fellini International Airport 1 0.03 0/0 30.56 LIPR 182150Z AUTO 27001KT 0050 R31/0400N FG VV002 00/M00 Q1035
YEO EGDY Yeovil, GB RNAS Yeovilton 1 0.03 0/0 30.50 EGDY 182150Z AUTO 13001KT 0050 FG BKN001/// 00/M00 Q1033
HFE ZSOF Hefei, CN Hefei Luogang International Airport 2 0.06 -1/-1 30.21 ZSOF 182200Z 07001MPS 0100 R15/0350U FZFG NSC M01/M01 Q1023 BECMG AT2300 0300 BECMG AT0000 FG
ALA UAAA Almaty, KZ Almaty Airport 4 0.06 -1/-1 29.88 UAAA 182200Z 08002MPS 040V110 0100 R23R/0450N R23L/0600N FZFG VV001 M01/M01 Q1012 NOSIG RMK QBB030

Station
 
Location
 
Name
 
Wind
Knots
Gust
Knots
Vis
SM
Temp/Dew
C
Baro
inHg
METAR
 
KMWN 71 77 0.06 -28/-28 KMWN 182156Z 29071G77KT 1/16SM FZFG BLSN VV002 M28/M28 RMK PK WND 25092/03 FZFG INTMT VRY LGT ICG
LIPC Cervia, IT Cervia Air Base 3 0.06 2/0 30.53 LIPC 182155Z 30003KT 0100 R11/0200 FG VV001 02/M00 Q1034
PEG LIRZ Perugia, IT Perugia San Francesco d'Assisi – Umbria International Airport 1 0.06 0/0 30.50 LIRZ 182150Z AUTO VRB01KT 0100 R01/0400N FG VV002 00/00 Q1033
UCFM 12 0.09 0/0 29.85 UCFM 182200Z 24006MPS 0150 R26/0550N FZFG VV002 M00/M00 Q1011 R26/0///95 NOSIG
LHE OPLA Lahore, PK Alama Iqbal International Airport 3 0.09 8/6 30.03 OPLA 182155Z 08003KT 0150 FG VV/// 08/06 Q1017 BECMG 0100 RMK QFE989 A30.04
EGDM Amesbury, GB MoD Boscombe Down Airport 4 0.09 3/3 30.47 EGDM 182150Z AUTO 19004KT 0150 FG NCD 03/03 Q1032
CSX ZGHA Changsha, CN Changsha Huanghua International Airport 2 0.12 3/3 30.21 ZGHA 182200Z 09001MPS 0200 R18R/0275N R18L/0275N FG VV002 03/03 Q1023 NOSIG
ISU ORSU Sulaymaniyah, IQ Sulaymaniyah International Airport 2 0.12 -8/-8 30.27 ORSU 182200Z VRB02KT 0200 FZFG VV/// M08/M08 Q1025
PWQ UASP Pavlodar, KZ Pavlodar Airport 2 0.16 -19/-21 30.32 UASP 182200Z 17001MPS 0250 R21/0900 FZFG VV001 M19/M21 Q1027 NOSIG RMK QBB050 OBST OBSC QFE759/1012
RDZ LFCR Rodez/Marcillac, FR Rodez-Marcillac Airport 0 0.16 -3/-4 30.44 LFCR 182200Z AUTO 00000KT 0250 R31/0275N FZFG VV/// M03/M04 Q1031 NOSIG
RTM EHRD Rotterdam, NL Rotterdam The Hague Airport 2 0.16 3/2 30.56 EHRD 182155Z AUTO VRB02KT 0250 R06/0250N FG OVC000 03/02 Q1035 NOSIG
BLQ LIPE Bologna, IT Bologna Guglielmo Marconi Airport 2 0.16 3/3 30.56 LIPE 182150Z 20002KT 0250 R12/0450N R30/0375N FG VV001 03/03 Q1035
EHSC NL Lichteiland Goeree 1 0.19 3/3 30.53 EHSC 182155Z AUTO VRB01KT 0300 FG ///////// 03/03 Q1034 W07/H6
EBFN Koksijde, BE Koksijde Air Base 2 0.19 3/3 30.53 EBFN 182155Z AUTO VRB02KT 0300 FG SCT001/// BKN024/// 03/03 Q1034 RED
KS32 28 38 0.25 -14/-14 29.79 KS32 182215Z AUTO 30028G38KT 1/4SM FZFG OVC009 M14/M14 A2979 RMK AO2 TSNO
KD55 27 35 0.25 -15/-15 29.77 KD55 182215Z AUTO 31027G35KT M1/4SM FZFG M15/M15 A2977 RMK AO2
KSMP 3 0.25 1/0 30.04 KSMP 182210Z AUTO VRB03KT 1/4SM -SN FG VV004 01/01 A3004 RMK AO2 SNB2157 P0000 T00110006
MOT KMOT Minot, US Minot International Airport 33 43 0.25 -18/-22 29.98 KMOT 182207Z 29033G43KT 1/4SM BLSN VV007 M18/M22 A2998 RMK AO2 PK WND 29043/2205 T11831222
PLN KPLN Pellston, US Pellston Regional Airport of Emmet County Airport 11 0.25 -4/-6 29.70 KPLN 182201Z AUTO 13011KT 1/4SM SN FZFG VV011 M04/M06 A2970 RMK AO2 P0000 T10441061 $
ATQ VIAR Amritsar, IN Sri Guru Ram Dass Jee International Airport 0 0.25 9/9 30.06 VIAR 182200Z 00000KT 0400 R34/1400 FG SCT100 09/09 Q1018 NOSIG
RDR KRDR Grand Forks, US Grand Forks Air Force Base 24 32 0.25 -13/-15 29.77 KRDR 182157Z 32024G32KT 1/4SM BLSN SCT007 BKN013 M13/M16 A2977 RMK AO2A PK WND 30039/06 SLP103 T11301158 $
VAK PAVA Chevak, US Chevak Airport 23 0.25 -17/-20 29.98 PAVA 182156Z AUTO 02023KT 1/4SM SN FZFG VV002 M18/M20 A2998 RMK AO2 PK WND 02030/2147 SLP156 P0000 T11781200 FZRANO
JMS KJMS Jamestown, US Jamestown Regional Airport 31 49 0.25 -14/-18 29.80 KJMS 182156Z AUTO 31031G49KT 1/4SM UP VV012 M14/M18 A2980 RMK AO2 PK WND 31049/2148 UPB15SNE06 SLP124 P0000 T11441183
FFD EGVA Fairford, GB RAF Fairford 3 0.25 -1/-1 30.47 EGVA 182156Z AUTO 27003KT 0400 R09/0350V0550 FZFG BKN000 M01/M01 A3047 RMK AO2 BKN V FEW SLP328 T10141015 $
KRUG Rugby, US Rugby Municipal Airport 27 34 0.25 -19/-21 29.90 KRUG 182155Z AUTO 31027G34KT 1/4SM FZFG SCT005 BKN013 M19/M21 A2990 RMK AO2
KHCO Hallock, US Hallock Municipal Airport 0.25 -15/-17 29.71 KHCO 182155Z AUTO 1/4SM -SN OVC012 M15/M17 A2971 RMK AO2
GNG KGNG Gooding, US Gooding Municipal Airport 3 0.25 -4/-4 30.14 KGNG 182155Z AUTO 23003KT M1/4SM FZFG OVC002 M04/M04 A3014 RMK AO2
DTL KDTL Detroit Lakes, US Detroit Lakes Airport - Wething Field 27 33 0.25 -11/-13 29.64 KDTL 182155Z AUTO 31027G33KT 1/4SM SN FZFG OVC009 M11/M13 A2964 RMK AO2
CKN KCKN Crookston, US Crookston Municipal Kirkwood Field 24 30 0.25 -14/-15 29.74 KCKN 182155Z AUTO 32024G30KT M1/4SM OVC001 M14/M15 A2974 RMK AO2 PWINO
KBAC 29 42 0.25 -13/-14 29.80 KBAC 182155Z AUTO 31029G42KT M1/4SM +SN FZFG BKN004 OVC014 M13/M14 A2980 RMK AO2
K5H4 28 34 0.25 -18/-20 29.91 K5H4 182155Z AUTO 31028G34KT 1/4SM -SN SCT006 BKN013 M18/M20 A2991 RMK AO2
K46D 36 42 0.25 -15/-17 29.88 K46D 182155Z AUTO 31036G42KT M1/4SM -SN OVC001 M15/M17 A2988 RMK AO2
K3N8 21 28 0.25 -10/-12 29.65 K3N8 182155Z AUTO 31021G28KT M1/4SM +SN OVC003 M11/M12 A2965 RMK AO2 T11071121
K2D5 23 32 0.25 -11/-12 29.83 K2D5 182155Z AUTO 31023G32KT 1/4SM -SN SCT005 BKN008 OVC014 M11/M12 A2983 RMK AO2
KMLP 0 0.25 -2/-3 29.92 KMLP 182153Z AUTO 00000KT 1/4SM -SN FZFG VV001 M02/M03 A2992 RMK AO2 SLP163 P0001 T10221033
UTFF 2 0.31 5/3 29.79 UTFF 182200Z VRB02KT 0500 MIFG BKN010 05/03 Q1009 R18/CLRD70
EHVK Uden, NL Volkel Air Base 3 0.34 2/2 30.53 EHVK 182206Z AUTO 06003KT 0550 FG OVC020 02/02 Q1034 RED
LYVR RS Vršac International Airport 1 0.34 -6/-6 30.53 LYVR 182200Z AUTO 20001KT 0550 R19/0650D R01/1300U FZFG NSC M06/M06 Q1034
DCM LFCK Castres/Mazamet, FR Castres-Mazamet Airport 2 0.34 -2/-2 30.56 LFCK 182200Z AUTO VRB02KT 0550 R14/0900U FZFG VV/// M02/M02 Q1035 TEMPO 0300 FZFG
EHFS 3 0.34 2/2 30.53 EHFS 182155Z AUTO VRB03KT 0550 FG OVC000/// 02/02 Q1034 REDZ
LIG LFBL Limoges/Bellegarde, FR Limoges Airport 7 0.37 -1/-1 30.44 LFBL 182200Z AUTO 19007KT 0600 0500 R21/0900U R03/0600D FZFG VV/// M01/M01 Q1031 NOSIG
OST EBOS Ostend, BE Ostend-Bruges International Airport 3 0.37 2/2 30.53 EBOS 182150Z 08003KT 050V120 0600 R08/0600N R26/0700U FG SCT002 02/02 Q1034 BECMG 1800 BR BKN022
YXL CYXL Sioux Lookout, CA Sioux Lookout Airport 9 18 0.38 -15/-17 29.45 CYXL 182200Z 06009G18KT 3/8SM SN VV004 M15/M17 A2945 RMK SN8 SLP013
UCFO 2 0.4 3/3 29.73 UCFO 182200Z VRB01MPS 0650 0600E R12/P1500U FG BKN040 03/03 Q1007 R12/0///95 TEMPO 0200 VV002
EBBL Kleine Brogel, BE Kleine Brogel Air Base 2 0.43 1/1 30.53 EBBL 182203Z AUTO VRB02KT 0700 BR NCD 01/01 Q1034 RED